首页
METAR-TAF:

METAR-TAF

机场 :

巴馬科國際機場

巴馬科, 马里共和国

纬度: 12-32N, 经度: 007-57W, 海拔: 380米

当前天气观测

该预报发布于35分钟前的00:30 UTC
风速4节,风向西,在南转西南北转西北之间变化
温度 28°C
湿度 70%
气压 1014 hPa
能见度10公里或以上
少量云层高于2500英尺
少量云层高于3000英尺, 积雨云.
雷暴

METAR: GABS 310030Z 26004KT 200V330 9999 TS FEW025 FEW030CB 28/22 Q1014 TEMPO 09015G35KT 4000 SQ TSRA

时间: 01:05 (01:05 UTC)

预报

该预报发布于2小时和5分钟前的23:00 UTC
预报有效从31日的 00点(UTC)到 01日的 06点(UTC)
风速6节,风向南转西南
能见度10公里或以上
散云层高于3000英尺
少量云层高于3300英尺, 积雨云.
雷暴
几率 40% :
短暂存在
从 31日的 00点(UTC)到 31日的 03点(UTC)
风速15节,风向,有时为35节阵风
能見度: 4000
雷暴, 雨
成为
从 31日的 03点(UTC)到 31日的 05点(UTC)
散云层高于3000英尺
短暂存在
从 31日的 16点(UTC)到 31日的 22点(UTC)
风速15节,风向多变,有时为35节阵风
能見度: 4000
散云层高于3000英尺
少量云层高于3300英尺, 积雨云.
雷暴, 雨

TAF: GABS 302300Z 3100/0106 20006KT 9999 TS SCT030 FEW033CB PROB40 TEMPO 3100/3103 08015G35KT 4000 TSRA BECMG 3103/3105 NSW SCT030 TEMPO 3116/3122 VRB15G35KT 4000 TSRA SCT030 FEW033CB

超过4000个机场的气象观测和天气预报(METAR&TAF报告)。

可查询的气象台以黄色和红色小点在地图上表示。

将鼠标移到小点上方,可查看气象台名称。

然后点击查看天气观测和预报。

如需切换地图:点击带黑十字的绿色按钮放大地图;点击带横线的绿色按钮缩小地图;或者点击绿色箭头查看邻近地区的地图。


METAR-TAF: